sensor_id;sensor_type;location;lat;lon;timestamp;temperature;humidity
76203;DHT22;64985;46.364;17.008;2023-05-14T00:01:46;11.30;99.90
76203;DHT22;64985;46.364;17.008;2023-05-14T00:04:48;11.30;99.90
76203;DHT22;64985;46.364;17.008;2023-05-14T00:07:50;11.30;99.90
76203;DHT22;64985;46.364;17.008;2023-05-14T00:10:52;11.30;99.90
76203;DHT22;64985;46.364;17.008;2023-05-14T00:13:54;11.30;99.90
76203;DHT22;64985;46.364;17.008;2023-05-14T00:16:56;11.30;99.90
76203;DHT22;64985;46.364;17.008;2023-05-14T00:19:59;11.30;99.90
76203;DHT22;64985;46.364;17.008;2023-05-14T00:23:01;11.30;99.90
76203;DHT22;64985;46.364;17.008;2023-05-14T00:26:03;11.30;99.90
76203;DHT22;64985;46.364;17.008;2023-05-14T00:29:05;11.30;99.90
76203;DHT22;64985;46.364;17.008;2023-05-14T00:32:07;11.30;99.90
76203;DHT22;64985;46.364;17.008;2023-05-14T00:35:09;11.30;99.90
76203;DHT22;64985;46.364;17.008;2023-05-14T00:38:11;11.30;99.90
76203;DHT22;64985;46.364;17.008;2023-05-14T00:41:17;11.30;99.90
76203;DHT22;64985;46.364;17.008;2023-05-14T00:44:19;11.30;99.90
76203;DHT22;64985;46.364;17.008;2023-05-14T00:47:22;11.30;99.90
76203;DHT22;64985;46.364;17.008;2023-05-14T00:50:24;11.30;99.90
76203;DHT22;64985;46.364;17.008;2023-05-14T00:53:27;11.40;99.90
76203;DHT22;64985;46.364;17.008;2023-05-14T00:56:30;11.40;99.90
76203;DHT22;64985;46.364;17.008;2023-05-14T00:59:33;11.40;99.90
76203;DHT22;64985;46.364;17.008;2023-05-14T01:02:35;11.40;99.90
76203;DHT22;64985;46.364;17.008;2023-05-14T01:05:55;11.40;99.90
76203;DHT22;64985;46.364;17.008;2023-05-14T01:09:19;11.40;99.90
76203;DHT22;64985;46.364;17.008;2023-05-14T01:12:34;11.40;99.90
76203;DHT22;64985;46.364;17.008;2023-05-14T01:15:39;11.40;99.90
76203;DHT22;64985;46.364;17.008;2023-05-14T01:18:42;11.40;99.90
76203;DHT22;64985;46.364;17.008;2023-05-14T01:21:47;11.40;99.90
76203;DHT22;64985;46.364;17.008;2023-05-14T01:24:49;11.40;99.90
76203;DHT22;64985;46.364;17.008;2023-05-14T01:28:04;11.40;99.90
76203;DHT22;64985;46.364;17.008;2023-05-14T01:31:11;11.40;99.90
76203;DHT22;64985;46.364;17.008;2023-05-14T01:34:20;11.40;99.90
76203;DHT22;64985;46.364;17.008;2023-05-14T01:37:24;11.40;99.90
76203;DHT22;64985;46.364;17.008;2023-05-14T01:40:28;11.40;99.90
76203;DHT22;64985;46.364;17.008;2023-05-14T01:43:32;11.40;99.90
76203;DHT22;64985;46.364;17.008;2023-05-14T01:46:35;11.30;99.90
76203;DHT22;64985;46.364;17.008;2023-05-14T01:49:37;11.40;99.90
76203;DHT22;64985;46.364;17.008;2023-05-14T01:52:39;11.40;99.90
76203;DHT22;64985;46.364;17.008;2023-05-14T01:55:42;11.30;99.90
76203;DHT22;64985;46.364;17.008;2023-05-14T01:58:44;11.40;99.90
76203;DHT22;64985;46.364;17.008;2023-05-14T02:01:46;11.40;99.90
76203;DHT22;64985;46.364;17.008;2023-05-14T02:04:49;11.40;99.90
76203;DHT22;64985;46.364;17.008;2023-05-14T02:07:51;11.40;99.90
76203;DHT22;64985;46.364;17.008;2023-05-14T02:10:53;11.40;99.90
76203;DHT22;64985;46.364;17.008;2023-05-14T02:13:55;11.40;99.90
76203;DHT22;64985;46.364;17.008;2023-05-14T02:16:57;11.40;99.90
76203;DHT22;64985;46.364;17.008;2023-05-14T02:19:59;11.40;99.90
76203;DHT22;64985;46.364;17.008;2023-05-14T02:23:01;11.40;99.90
76203;DHT22;64985;46.364;17.008;2023-05-14T02:26:03;11.40;99.90
76203;DHT22;64985;46.364;17.008;2023-05-14T02:29:05;11.40;99.90
76203;DHT22;64985;46.364;17.008;2023-05-14T02:32:07;11.40;99.90
76203;DHT22;64985;46.364;17.008;2023-05-14T02:35:10;11.40;99.90
76203;DHT22;64985;46.364;17.008;2023-05-14T02:38:12;11.30;99.90
76203;DHT22;64985;46.364;17.008;2023-05-14T02:41:14;11.30;99.90
76203;DHT22;64985;46.364;17.008;2023-05-14T02:44:16;11.40;99.90
76203;DHT22;64985;46.364;17.008;2023-05-14T02:47:18;11.40;99.90
76203;DHT22;64985;46.364;17.008;2023-05-14T02:50:20;11.40;99.90
76203;DHT22;64985;46.364;17.008;2023-05-14T02:53:22;11.40;99.90
76203;DHT22;64985;46.364;17.008;2023-05-14T02:56:24;11.30;99.90
76203;DHT22;64985;46.364;17.008;2023-05-14T02:59:27;11.30;99.90
76203;DHT22;64985;46.364;17.008;2023-05-14T03:02:29;11.30;99.90
76203;DHT22;64985;46.364;17.008;2023-05-14T03:05:32;11.30;99.90
76203;DHT22;64985;46.364;17.008;2023-05-14T03:08:34;11.30;99.90
76203;DHT22;64985;46.364;17.008;2023-05-14T03:11:36;11.30;99.90
76203;DHT22;64985;46.364;17.008;2023-05-14T03:14:38;11.30;99.90
76203;DHT22;64985;46.364;17.008;2023-05-14T03:17:40;11.30;99.90
76203;DHT22;64985;46.364;17.008;2023-05-14T03:20:43;11.30;99.90
76203;DHT22;64985;46.364;17.008;2023-05-14T03:23:45;11.30;99.90
76203;DHT22;64985;46.364;17.008;2023-05-14T03:26:47;11.30;99.90
76203;DHT22;64985;46.364;17.008;2023-05-14T03:29:49;11.20;99.90
76203;DHT22;64985;46.364;17.008;2023-05-14T03:32:51;11.20;99.90
76203;DHT22;64985;46.364;17.008;2023-05-14T03:35:53;11.20;99.90
76203;DHT22;64985;46.364;17.008;2023-05-14T03:38:55;11.20;99.90
76203;DHT22;64985;46.364;17.008;2023-05-14T03:41:57;11.20;99.90
76203;DHT22;64985;46.364;17.008;2023-05-14T03:44:59;11.20;99.90
76203;DHT22;64985;46.364;17.008;2023-05-14T03:48:02;11.20;99.90
76203;DHT22;64985;46.364;17.008;2023-05-14T03:51:04;11.20;99.90
76203;DHT22;64985;46.364;17.008;2023-05-14T03:54:06;11.20;99.90
76203;DHT22;64985;46.364;17.008;2023-05-14T03:57:08;11.20;99.90
76203;DHT22;64985;46.364;17.008;2023-05-14T04:00:11;11.20;99.90
76203;DHT22;64985;46.364;17.008;2023-05-14T04:03:13;11.30;99.90
76203;DHT22;64985;46.364;17.008;2023-05-14T04:06:15;11.20;99.90
76203;DHT22;64985;46.364;17.008;2023-05-14T04:09:17;11.20;99.90
76203;DHT22;64985;46.364;17.008;2023-05-14T04:12:19;11.30;99.90
76203;DHT22;64985;46.364;17.008;2023-05-14T04:15:22;11.20;99.90
76203;DHT22;64985;46.364;17.008;2023-05-14T04:18:24;11.20;99.90
76203;DHT22;64985;46.364;17.008;2023-05-14T04:21:26;11.30;99.90
76203;DHT22;64985;46.364;17.008;2023-05-14T04:24:28;11.30;99.90
76203;DHT22;64985;46.364;17.008;2023-05-14T04:27:32;11.20;99.90
76203;DHT22;64985;46.364;17.008;2023-05-14T04:30:34;11.30;99.90
76203;DHT22;64985;46.364;17.008;2023-05-14T04:33:37;11.30;99.90
76203;DHT22;64985;46.364;17.008;2023-05-14T04:36:38;11.30;99.90
76203;DHT22;64985;46.364;17.008;2023-05-14T04:39:41;11.30;99.90
76203;DHT22;64985;46.364;17.008;2023-05-14T04:42:43;11.30;99.90
76203;DHT22;64985;46.364;17.008;2023-05-14T04:45:45;11.30;99.90
76203;DHT22;64985;46.364;17.008;2023-05-14T04:48:48;11.40;99.90
76203;DHT22;64985;46.364;17.008;2023-05-14T04:51:51;11.40;99.90
76203;DHT22;64985;46.364;17.008;2023-05-14T04:54:53;11.40;99.90
76203;DHT22;64985;46.364;17.008;2023-05-14T04:57:55;11.40;99.90
76203;DHT22;64985;46.364;17.008;2023-05-14T05:00:58;11.40;99.90
76203;DHT22;64985;46.364;17.008;2023-05-14T05:04:00;11.40;99.90
76203;DHT22;64985;46.364;17.008;2023-05-14T05:07:03;11.50;99.90
76203;DHT22;64985;46.364;17.008;2023-05-14T05:10:07;11.50;99.90
76203;DHT22;64985;46.364;17.008;2023-05-14T05:13:09;11.50;99.90
76203;DHT22;64985;46.364;17.008;2023-05-14T05:16:11;11.50;99.90
76203;DHT22;64985;46.364;17.008;2023-05-14T05:19:13;11.50;99.90
76203;DHT22;64985;46.364;17.008;2023-05-14T05:22:16;11.50;99.90
76203;DHT22;64985;46.364;17.008;2023-05-14T05:25:18;11.60;99.90
76203;DHT22;64985;46.364;17.008;2023-05-14T05:28:20;11.70;99.90
76203;DHT22;64985;46.364;17.008;2023-05-14T05:31:22;11.60;99.90
76203;DHT22;64985;46.364;17.008;2023-05-14T05:34:24;11.70;99.90
76203;DHT22;64985;46.364;17.008;2023-05-14T05:37:26;11.70;99.90
76203;DHT22;64985;46.364;17.008;2023-05-14T05:40:28;11.70;99.90
76203;DHT22;64985;46.364;17.008;2023-05-14T05:43:30;11.80;99.90
76203;DHT22;64985;46.364;17.008;2023-05-14T05:46:34;11.80;99.90
76203;DHT22;64985;46.364;17.008;2023-05-14T05:49:36;11.80;99.90
76203;DHT22;64985;46.364;17.008;2023-05-14T05:52:38;11.80;99.90
76203;DHT22;64985;46.364;17.008;2023-05-14T05:55:40;11.80;99.90
76203;DHT22;64985;46.364;17.008;2023-05-14T05:58:42;11.80;99.90
76203;DHT22;64985;46.364;17.008;2023-05-14T06:01:44;11.90;99.90
76203;DHT22;64985;46.364;17.008;2023-05-14T06:04:46;11.80;99.90
76203;DHT22;64985;46.364;17.008;2023-05-14T06:07:49;11.90;99.90
76203;DHT22;64985;46.364;17.008;2023-05-14T06:10:51;12.00;99.90
76203;DHT22;64985;46.364;17.008;2023-05-14T06:13:53;12.10;99.90
76203;DHT22;64985;46.364;17.008;2023-05-14T06:16:55;12.10;99.90
76203;DHT22;64985;46.364;17.008;2023-05-14T06:19:58;12.20;99.90
76203;DHT22;64985;46.364;17.008;2023-05-14T06:23:00;12.20;99.90
76203;DHT22;64985;46.364;17.008;2023-05-14T06:26:02;12.10;99.90
76203;DHT22;64985;46.364;17.008;2023-05-14T06:29:04;12.10;99.90
76203;DHT22;64985;46.364;17.008;2023-05-14T06:32:07;12.30;99.90
76203;DHT22;64985;46.364;17.008;2023-05-14T06:35:09;12.30;99.90
76203;DHT22;64985;46.364;17.008;2023-05-14T06:38:11;12.30;99.90
76203;DHT22;64985;46.364;17.008;2023-05-14T06:41:13;12.30;99.90
76203;DHT22;64985;46.364;17.008;2023-05-14T06:44:18;12.30;99.90
76203;DHT22;64985;46.364;17.008;2023-05-14T06:47:20;12.40;99.90
76203;DHT22;64985;46.364;17.008;2023-05-14T06:50:22;12.50;99.90
76203;DHT22;64985;46.364;17.008;2023-05-14T06:53:25;12.40;99.90
76203;DHT22;64985;46.364;17.008;2023-05-14T06:56:27;12.50;99.90
76203;DHT22;64985;46.364;17.008;2023-05-14T06:59:29;12.50;99.90
76203;DHT22;64985;46.364;17.008;2023-05-14T07:02:31;12.50;99.90
76203;DHT22;64985;46.364;17.008;2023-05-14T07:05:33;12.40;99.90
76203;DHT22;64985;46.364;17.008;2023-05-14T07:08:35;12.40;99.90
76203;DHT22;64985;46.364;17.008;2023-05-14T07:11:37;12.30;99.90
76203;DHT22;64985;46.364;17.008;2023-05-14T07:14:39;12.30;99.90
76203;DHT22;64985;46.364;17.008;2023-05-14T07:17:41;12.20;99.90
76203;DHT22;64985;46.364;17.008;2023-05-14T07:20:44;12.10;99.90
76203;DHT22;64985;46.364;17.008;2023-05-14T07:23:46;12.10;99.90
76203;DHT22;64985;46.364;17.008;2023-05-14T07:26:48;12.10;99.90
76203;DHT22;64985;46.364;17.008;2023-05-14T07:29:50;12.10;99.90
76203;DHT22;64985;46.364;17.008;2023-05-14T07:32:52;12.10;99.90
76203;DHT22;64985;46.364;17.008;2023-05-14T07:35:54;12.20;99.90
76203;DHT22;64985;46.364;17.008;2023-05-14T07:38:56;12.20;99.90
76203;DHT22;64985;46.364;17.008;2023-05-14T07:41:59;12.20;99.90
76203;DHT22;64985;46.364;17.008;2023-05-14T07:45:02;12.20;99.90
76203;DHT22;64985;46.364;17.008;2023-05-14T07:48:04;12.10;99.90
76203;DHT22;64985;46.364;17.008;2023-05-14T07:51:07;12.10;99.90
76203;DHT22;64985;46.364;17.008;2023-05-14T07:54:09;12.00;99.90
76203;DHT22;64985;46.364;17.008;2023-05-14T07:57:12;12.00;99.90
76203;DHT22;64985;46.364;17.008;2023-05-14T08:00:14;12.00;99.90
76203;DHT22;64985;46.364;17.008;2023-05-14T08:03:17;12.00;99.90
76203;DHT22;64985;46.364;17.008;2023-05-14T08:06:19;12.00;99.90
76203;DHT22;64985;46.364;17.008;2023-05-14T08:09:22;12.10;99.90
76203;DHT22;64985;46.364;17.008;2023-05-14T08:12:25;12.10;99.90
76203;DHT22;64985;46.364;17.008;2023-05-14T08:15:27;12.10;99.90
76203;DHT22;64985;46.364;17.008;2023-05-14T08:18:29;12.10;99.90
76203;DHT22;64985;46.364;17.008;2023-05-14T08:21:31;12.10;99.90
76203;DHT22;64985;46.364;17.008;2023-05-14T08:24:33;12.10;99.90
76203;DHT22;64985;46.364;17.008;2023-05-14T08:27:36;12.10;99.90
76203;DHT22;64985;46.364;17.008;2023-05-14T08:30:38;12.10;99.90
76203;DHT22;64985;46.364;17.008;2023-05-14T08:33:40;12.10;99.90
76203;DHT22;64985;46.364;17.008;2023-05-14T08:36:42;12.00;99.90
76203;DHT22;64985;46.364;17.008;2023-05-14T08:39:44;12.00;99.90
76203;DHT22;64985;46.364;17.008;2023-05-14T08:42:47;11.90;99.90
76203;DHT22;64985;46.364;17.008;2023-05-14T08:45:53;11.90;99.90
76203;DHT22;64985;46.364;17.008;2023-05-14T08:52:48;12.00;99.90
76203;DHT22;64985;46.364;17.008;2023-05-14T08:55:50;12.10;99.90
76203;DHT22;64985;46.364;17.008;2023-05-14T08:58:53;12.10;99.90
76203;DHT22;64985;46.364;17.008;2023-05-14T09:01:57;12.20;99.90
76203;DHT22;64985;46.364;17.008;2023-05-14T09:05:02;12.20;99.90
76203;DHT22;64985;46.364;17.008;2023-05-14T09:08:05;12.20;99.90
76203;DHT22;64985;46.364;17.008;2023-05-14T09:11:07;12.30;99.90
76203;DHT22;64985;46.364;17.008;2023-05-14T09:14:09;12.40;99.90
76203;DHT22;64985;46.364;17.008;2023-05-14T09:17:11;12.30;99.90
76203;DHT22;64985;46.364;17.008;2023-05-14T09:20:14;12.40;99.90
76203;DHT22;64985;46.364;17.008;2023-05-14T09:23:16;12.40;99.90
76203;DHT22;64985;46.364;17.008;2023-05-14T09:26:24;12.40;99.90
76203;DHT22;64985;46.364;17.008;2023-05-14T09:29:28;12.40;99.90
76203;DHT22;64985;46.364;17.008;2023-05-14T09:32:42;12.30;99.90
76203;DHT22;64985;46.364;17.008;2023-05-14T09:35:46;12.20;99.90
76203;DHT22;64985;46.364;17.008;2023-05-14T09:38:49;12.20;99.90
76203;DHT22;64985;46.364;17.008;2023-05-14T09:41:51;12.10;99.90
76203;DHT22;64985;46.364;17.008;2023-05-14T09:44:53;12.10;99.90
76203;DHT22;64985;46.364;17.008;2023-05-14T09:47:58;12.10;99.90
76203;DHT22;64985;46.364;17.008;2023-05-14T09:51:01;12.10;99.90
76203;DHT22;64985;46.364;17.008;2023-05-14T09:54:06;12.00;99.90
76203;DHT22;64985;46.364;17.008;2023-05-14T09:57:08;12.00;99.90
76203;DHT22;64985;46.364;17.008;2023-05-14T10:00:11;12.00;99.90
76203;DHT22;64985;46.364;17.008;2023-05-14T10:03:14;12.00;99.90
76203;DHT22;64985;46.364;17.008;2023-05-14T10:06:27;12.00;99.90
76203;DHT22;64985;46.364;17.008;2023-05-14T10:09:31;12.00;99.90
76203;DHT22;64985;46.364;17.008;2023-05-14T10:12:37;12.00;99.90
76203;DHT22;64985;46.364;17.008;2023-05-14T10:15:45;12.00;99.90
76203;DHT22;64985;46.364;17.008;2023-05-14T10:18:51;11.90;99.90
76203;DHT22;64985;46.364;17.008;2023-05-14T10:22:06;12.00;99.90
76203;DHT22;64985;46.364;17.008;2023-05-14T10:25:08;11.90;99.90
76203;DHT22;64985;46.364;17.008;2023-05-14T10:28:11;11.90;99.90
76203;DHT22;64985;46.364;17.008;2023-05-14T10:31:13;11.90;99.90
76203;DHT22;64985;46.364;17.008;2023-05-14T10:37:38;11.90;99.90
76203;DHT22;64985;46.364;17.008;2023-05-14T10:40:40;11.90;99.90
76203;DHT22;64985;46.364;17.008;2023-05-14T10:43:43;11.90;99.90
76203;DHT22;64985;46.364;17.008;2023-05-14T10:46:45;11.90;99.90
76203;DHT22;64985;46.364;17.008;2023-05-14T10:49:47;11.90;99.90
76203;DHT22;64985;46.364;17.008;2023-05-14T10:52:50;11.90;99.90
76203;DHT22;64985;46.364;17.008;2023-05-14T10:55:53;11.90;99.90
76203;DHT22;64985;46.364;17.008;2023-05-14T10:58:57;12.00;99.90
76203;DHT22;64985;46.364;17.008;2023-05-14T11:02:04;11.90;99.90
76203;DHT22;64985;46.364;17.008;2023-05-14T11:05:08;12.00;99.90
76203;DHT22;64985;46.364;17.008;2023-05-14T11:08:11;12.00;99.90
76203;DHT22;64985;46.364;17.008;2023-05-14T11:11:14;12.00;99.90
76203;DHT22;64985;46.364;17.008;2023-05-14T11:14:17;12.10;99.90
76203;DHT22;64985;46.364;17.008;2023-05-14T11:17:20;12.10;99.90
76203;DHT22;64985;46.364;17.008;2023-05-14T11:20:22;12.10;99.90
76203;DHT22;64985;46.364;17.008;2023-05-14T11:23:25;12.20;99.90
76203;DHT22;64985;46.364;17.008;2023-05-14T11:26:27;12.20;99.90
76203;DHT22;64985;46.364;17.008;2023-05-14T11:29:30;12.30;99.90
76203;DHT22;64985;46.364;17.008;2023-05-14T11:32:32;12.30;99.90
76203;DHT22;64985;46.364;17.008;2023-05-14T11:35:35;12.30;99.90
76203;DHT22;64985;46.364;17.008;2023-05-14T11:38:47;12.30;99.90
76203;DHT22;64985;46.364;17.008;2023-05-14T11:41:49;12.30;99.90
76203;DHT22;64985;46.364;17.008;2023-05-14T11:44:52;12.30;99.90
76203;DHT22;64985;46.364;17.008;2023-05-14T11:47:57;12.10;99.90
76203;DHT22;64985;46.364;17.008;2023-05-14T11:50:59;12.20;99.90
76203;DHT22;64985;46.364;17.008;2023-05-14T11:54:01;12.10;99.90
76203;DHT22;64985;46.364;17.008;2023-05-14T11:57:10;12.10;99.90
76203;DHT22;64985;46.364;17.008;2023-05-14T12:00:12;12.10;99.90
76203;DHT22;64985;46.364;17.008;2023-05-14T12:03:18;12.10;99.90
76203;DHT22;64985;46.364;17.008;2023-05-14T12:06:30;12.10;99.90
76203;DHT22;64985;46.364;17.008;2023-05-14T12:09:36;12.00;99.90
76203;DHT22;64985;46.364;17.008;2023-05-14T12:12:39;12.10;99.90
76203;DHT22;64985;46.364;17.008;2023-05-14T12:15:44;12.10;99.90
76203;DHT22;64985;46.364;17.008;2023-05-14T12:18:47;12.10;99.90
76203;DHT22;64985;46.364;17.008;2023-05-14T12:21:50;12.20;99.90
76203;DHT22;64985;46.364;17.008;2023-05-14T12:24:56;12.20;99.90
76203;DHT22;64985;46.364;17.008;2023-05-14T12:27:59;12.30;99.90
76203;DHT22;64985;46.364;17.008;2023-05-14T12:31:01;12.30;99.90
76203;DHT22;64985;46.364;17.008;2023-05-14T12:34:04;12.30;99.90
76203;DHT22;64985;46.364;17.008;2023-05-14T12:37:06;12.30;99.90
76203;DHT22;64985;46.364;17.008;2023-05-14T12:40:08;12.30;99.90
76203;DHT22;64985;46.364;17.008;2023-05-14T12:43:11;12.40;99.90
76203;DHT22;64985;46.364;17.008;2023-05-14T12:46:13;12.50;99.90
76203;DHT22;64985;46.364;17.008;2023-05-14T12:49:15;12.50;99.90
76203;DHT22;64985;46.364;17.008;2023-05-14T12:52:17;12.70;99.90
76203;DHT22;64985;46.364;17.008;2023-05-14T12:55:37;12.70;99.90
76203;DHT22;64985;46.364;17.008;2023-05-14T12:58:39;12.80;99.90
76203;DHT22;64985;46.364;17.008;2023-05-14T13:01:41;12.90;99.90
76203;DHT22;64985;46.364;17.008;2023-05-14T13:04:44;13.00;99.90
76203;DHT22;64985;46.364;17.008;2023-05-14T13:07:46;13.10;99.90
76203;DHT22;64985;46.364;17.008;2023-05-14T13:10:48;13.10;99.90
76203;DHT22;64985;46.364;17.008;2023-05-14T13:13:50;13.00;99.90
76203;DHT22;64985;46.364;17.008;2023-05-14T13:16:52;12.90;99.90
76203;DHT22;64985;46.364;17.008;2023-05-14T13:19:54;13.00;99.90
76203;DHT22;64985;46.364;17.008;2023-05-14T13:22:57;13.10;99.90
76203;DHT22;64985;46.364;17.008;2023-05-14T13:25:59;13.10;99.90
76203;DHT22;64985;46.364;17.008;2023-05-14T13:29:01;13.10;99.90
76203;DHT22;64985;46.364;17.008;2023-05-14T13:32:03;13.20;99.90
76203;DHT22;64985;46.364;17.008;2023-05-14T13:35:06;13.20;99.90
76203;DHT22;64985;46.364;17.008;2023-05-14T13:38:08;13.20;99.90
76203;DHT22;64985;46.364;17.008;2023-05-14T13:41:10;13.10;99.90
76203;DHT22;64985;46.364;17.008;2023-05-14T13:44:13;13.10;99.90
76203;DHT22;64985;46.364;17.008;2023-05-14T13:47:15;13.10;99.90
76203;DHT22;64985;46.364;17.008;2023-05-14T13:50:17;13.00;99.90
76203;DHT22;64985;46.364;17.008;2023-05-14T13:53:20;12.90;99.90
76203;DHT22;64985;46.364;17.008;2023-05-14T13:56:22;13.00;99.90
76203;DHT22;64985;46.364;17.008;2023-05-14T13:59:24;13.10;99.90
76203;DHT22;64985;46.364;17.008;2023-05-14T14:02:26;13.20;99.90
76203;DHT22;64985;46.364;17.008;2023-05-14T14:05:28;13.40;99.90
76203;DHT22;64985;46.364;17.008;2023-05-14T14:08:30;13.60;99.90
76203;DHT22;64985;46.364;17.008;2023-05-14T14:11:32;13.70;99.90
76203;DHT22;64985;46.364;17.008;2023-05-14T14:14:35;13.70;99.90
76203;DHT22;64985;46.364;17.008;2023-05-14T14:17:37;13.80;99.90
76203;DHT22;64985;46.364;17.008;2023-05-14T14:20:40;13.80;99.90
76203;DHT22;64985;46.364;17.008;2023-05-14T14:23:45;13.80;99.90
76203;DHT22;64985;46.364;17.008;2023-05-14T14:26:47;13.80;99.90
76203;DHT22;64985;46.364;17.008;2023-05-14T14:29:49;13.70;99.90
76203;DHT22;64985;46.364;17.008;2023-05-14T14:32:51;13.50;99.90
76203;DHT22;64985;46.364;17.008;2023-05-14T14:35:53;13.50;99.90
76203;DHT22;64985;46.364;17.008;2023-05-14T14:38:56;13.40;99.90
76203;DHT22;64985;46.364;17.008;2023-05-14T14:41:58;13.30;99.90
76203;DHT22;64985;46.364;17.008;2023-05-14T14:45:00;13.30;99.90
76203;DHT22;64985;46.364;17.008;2023-05-14T14:48:37;13.20;99.90
76203;DHT22;64985;46.364;17.008;2023-05-14T14:51:39;13.10;99.90
76203;DHT22;64985;46.364;17.008;2023-05-14T14:54:41;13.00;99.90
76203;DHT22;64985;46.364;17.008;2023-05-14T14:57:43;12.90;99.90
76203;DHT22;64985;46.364;17.008;2023-05-14T15:00:46;12.70;99.90
76203;DHT22;64985;46.364;17.008;2023-05-14T15:03:48;12.70;99.90
76203;DHT22;64985;46.364;17.008;2023-05-14T15:06:50;12.80;99.90
76203;DHT22;64985;46.364;17.008;2023-05-14T15:09:52;12.90;99.90
76203;DHT22;64985;46.364;17.008;2023-05-14T15:12:57;12.90;99.90
76203;DHT22;64985;46.364;17.008;2023-05-14T15:16:02;12.90;99.90
76203;DHT22;64985;46.364;17.008;2023-05-14T15:19:04;12.90;99.90
76203;DHT22;64985;46.364;17.008;2023-05-14T15:22:06;12.90;99.90
76203;DHT22;64985;46.364;17.008;2023-05-14T15:25:09;12.90;99.90
76203;DHT22;64985;46.364;17.008;2023-05-14T15:28:11;12.90;99.90
76203;DHT22;64985;46.364;17.008;2023-05-14T15:31:13;12.90;99.90
76203;DHT22;64985;46.364;17.008;2023-05-14T15:34:15;12.90;99.90
76203;DHT22;64985;46.364;17.008;2023-05-14T15:37:17;12.90;99.90
76203;DHT22;64985;46.364;17.008;2023-05-14T15:40:19;12.90;99.90
76203;DHT22;64985;46.364;17.008;2023-05-14T15:43:21;12.90;99.90
76203;DHT22;64985;46.364;17.008;2023-05-14T15:46:24;12.90;99.90
76203;DHT22;64985;46.364;17.008;2023-05-14T15:49:26;13.00;99.90
76203;DHT22;64985;46.364;17.008;2023-05-14T15:52:28;12.80;99.90
76203;DHT22;64985;46.364;17.008;2023-05-14T15:55:30;12.80;99.90
76203;DHT22;64985;46.364;17.008;2023-05-14T15:58:32;12.80;99.90
76203;DHT22;64985;46.364;17.008;2023-05-14T16:01:34;12.70;99.90
76203;DHT22;64985;46.364;17.008;2023-05-14T16:04:36;12.60;99.90
76203;DHT22;64985;46.364;17.008;2023-05-14T16:07:39;12.60;99.90
76203;DHT22;64985;46.364;17.008;2023-05-14T16:10:41;12.60;99.90
76203;DHT22;64985;46.364;17.008;2023-05-14T16:13:43;12.60;99.90
76203;DHT22;64985;46.364;17.008;2023-05-14T16:16:45;12.60;99.90
76203;DHT22;64985;46.364;17.008;2023-05-14T16:19:47;12.60;99.90
76203;DHT22;64985;46.364;17.008;2023-05-14T16:22:49;12.60;99.90
76203;DHT22;64985;46.364;17.008;2023-05-14T16:25:51;12.60;99.90
76203;DHT22;64985;46.364;17.008;2023-05-14T16:28:53;12.60;99.90
76203;DHT22;64985;46.364;17.008;2023-05-14T16:31:55;12.60;99.90
76203;DHT22;64985;46.364;17.008;2023-05-14T16:34:59;12.70;99.90
76203;DHT22;64985;46.364;17.008;2023-05-14T16:38:03;12.70;99.90
76203;DHT22;64985;46.364;17.008;2023-05-14T16:41:05;12.60;99.90
76203;DHT22;64985;46.364;17.008;2023-05-14T16:44:07;12.60;99.90
76203;DHT22;64985;46.364;17.008;2023-05-14T16:47:10;12.60;99.90
76203;DHT22;64985;46.364;17.008;2023-05-14T16:50:12;12.60;99.90
76203;DHT22;64985;46.364;17.008;2023-05-14T16:53:14;12.50;99.90
76203;DHT22;64985;46.364;17.008;2023-05-14T16:56:16;12.50;99.90
76203;DHT22;64985;46.364;17.008;2023-05-14T16:59:18;12.50;99.90
76203;DHT22;64985;46.364;17.008;2023-05-14T17:02:20;12.40;99.90
76203;DHT22;64985;46.364;17.008;2023-05-14T17:05:22;12.40;99.90
76203;DHT22;64985;46.364;17.008;2023-05-14T17:08:25;12.40;99.90
76203;DHT22;64985;46.364;17.008;2023-05-14T17:11:32;12.40;99.90
76203;DHT22;64985;46.364;17.008;2023-05-14T17:14:34;12.30;99.90
76203;DHT22;64985;46.364;17.008;2023-05-14T17:17:37;12.30;99.90
76203;DHT22;64985;46.364;17.008;2023-05-14T17:20:39;12.30;99.90
76203;DHT22;64985;46.364;17.008;2023-05-14T17:23:41;12.30;99.90
76203;DHT22;64985;46.364;17.008;2023-05-14T17:26:43;12.30;99.90
76203;DHT22;64985;46.364;17.008;2023-05-14T17:29:45;12.30;99.90
76203;DHT22;64985;46.364;17.008;2023-05-14T17:32:47;12.20;99.90
76203;DHT22;64985;46.364;17.008;2023-05-14T17:35:52;12.20;99.90
76203;DHT22;64985;46.364;17.008;2023-05-14T17:38:54;12.20;99.90
76203;DHT22;64985;46.364;17.008;2023-05-14T17:41:56;12.20;99.90
76203;DHT22;64985;46.364;17.008;2023-05-14T17:44:58;12.20;99.90
76203;DHT22;64985;46.364;17.008;2023-05-14T17:48:00;12.20;99.90
76203;DHT22;64985;46.364;17.008;2023-05-14T17:51:03;12.10;99.90
76203;DHT22;64985;46.364;17.008;2023-05-14T17:54:05;12.10;99.90
76203;DHT22;64985;46.364;17.008;2023-05-14T17:57:07;12.10;99.90
76203;DHT22;64985;46.364;17.008;2023-05-14T18:00:10;12.10;99.90
76203;DHT22;64985;46.364;17.008;2023-05-14T18:03:12;12.10;99.90
76203;DHT22;64985;46.364;17.008;2023-05-14T18:06:16;12.00;99.90
76203;DHT22;64985;46.364;17.008;2023-05-14T18:09:19;12.10;99.90
76203;DHT22;64985;46.364;17.008;2023-05-14T18:12:23;12.00;99.90
76203;DHT22;64985;46.364;17.008;2023-05-14T18:15:28;12.00;99.90
76203;DHT22;64985;46.364;17.008;2023-05-14T18:18:33;12.00;99.90
76203;DHT22;64985;46.364;17.008;2023-05-14T18:21:35;12.00;99.90
76203;DHT22;64985;46.364;17.008;2023-05-14T18:24:38;12.00;99.90
76203;DHT22;64985;46.364;17.008;2023-05-14T18:27:41;11.90;99.90
76203;DHT22;64985;46.364;17.008;2023-05-14T18:30:46;11.90;99.90
76203;DHT22;64985;46.364;17.008;2023-05-14T18:33:51;11.90;99.90
76203;DHT22;64985;46.364;17.008;2023-05-14T18:36:56;11.90;99.90
76203;DHT22;64985;46.364;17.008;2023-05-14T18:40:03;11.90;99.90
76203;DHT22;64985;46.364;17.008;2023-05-14T18:43:09;11.90;99.90
76203;DHT22;64985;46.364;17.008;2023-05-14T18:46:15;11.90;99.90
76203;DHT22;64985;46.364;17.008;2023-05-14T18:49:19;11.90;99.90
76203;DHT22;64985;46.364;17.008;2023-05-14T18:52:22;11.90;99.90
76203;DHT22;64985;46.364;17.008;2023-05-14T18:55:25;11.90;99.90
76203;DHT22;64985;46.364;17.008;2023-05-14T18:58:31;11.80;99.90
76203;DHT22;64985;46.364;17.008;2023-05-14T19:01:36;11.90;99.90
76203;DHT22;64985;46.364;17.008;2023-05-14T19:04:39;11.90;99.90